sensor_id;sensor_type;location;lat;lon;timestamp;P1;durP1;ratioP1;P2;durP2;ratioP2
47413;SDS011;33163;0.000;0.000;2023-05-07T00:02:15;8.73;;;4.72;;
47413;SDS011;33163;0.000;0.000;2023-05-07T00:04:43;9.98;;;5.20;;
47413;SDS011;33163;0.000;0.000;2023-05-07T00:07:10;9.80;;;5.10;;
47413;SDS011;33163;0.000;0.000;2023-05-07T00:09:37;10.02;;;5.43;;
47413;SDS011;33163;0.000;0.000;2023-05-07T00:12:03;9.52;;;5.05;;
47413;SDS011;33163;0.000;0.000;2023-05-07T00:14:30;10.38;;;5.60;;
47413;SDS011;33163;0.000;0.000;2023-05-07T00:16:57;9.20;;;5.65;;
47413;SDS011;33163;0.000;0.000;2023-05-07T00:19:24;12.65;;;5.68;;
47413;SDS011;33163;0.000;0.000;2023-05-07T00:21:52;7.47;;;4.85;;
47413;SDS011;33163;0.000;0.000;2023-05-07T00:24:20;10.73;;;5.93;;
47413;SDS011;33163;0.000;0.000;2023-05-07T00:26:47;8.32;;;5.20;;
47413;SDS011;33163;0.000;0.000;2023-05-07T00:29:14;9.25;;;4.72;;
47413;SDS011;33163;0.000;0.000;2023-05-07T00:31:41;9.00;;;4.68;;
47413;SDS011;33163;0.000;0.000;2023-05-07T00:34:07;9.70;;;5.28;;
47413;SDS011;33163;0.000;0.000;2023-05-07T00:36:34;8.00;;;4.65;;
47413;SDS011;33163;0.000;0.000;2023-05-07T00:39:02;8.45;;;5.35;;
47413;SDS011;33163;0.000;0.000;2023-05-07T00:41:29;9.45;;;4.93;;
47413;SDS011;33163;0.000;0.000;2023-05-07T00:43:56;11.05;;;5.88;;
47413;SDS011;33163;0.000;0.000;2023-05-07T00:46:23;8.93;;;4.53;;
47413;SDS011;33163;0.000;0.000;2023-05-07T00:48:50;8.48;;;5.10;;
47413;SDS011;33163;0.000;0.000;2023-05-07T00:51:17;8.77;;;5.60;;
47413;SDS011;33163;0.000;0.000;2023-05-07T00:53:44;6.22;;;4.57;;
47413;SDS011;33163;0.000;0.000;2023-05-07T00:56:13;10.10;;;5.05;;
47413;SDS011;33163;0.000;0.000;2023-05-07T00:58:40;7.30;;;5.30;;
47413;SDS011;33163;0.000;0.000;2023-05-07T01:01:07;6.75;;;4.57;;
47413;SDS011;33163;0.000;0.000;2023-05-07T01:03:34;8.48;;;4.40;;
47413;SDS011;33163;0.000;0.000;2023-05-07T01:06:01;7.00;;;4.65;;
47413;SDS011;33163;0.000;0.000;2023-05-07T01:08:29;7.13;;;4.80;;
47413;SDS011;33163;0.000;0.000;2023-05-07T01:10:57;7.35;;;4.65;;
47413;SDS011;33163;0.000;0.000;2023-05-07T01:13:25;7.18;;;4.40;;
47413;SDS011;33163;0.000;0.000;2023-05-07T01:15:52;9.70;;;4.32;;
47413;SDS011;33163;0.000;0.000;2023-05-07T01:18:19;11.52;;;5.05;;
47413;SDS011;33163;0.000;0.000;2023-05-07T01:20:47;8.10;;;4.55;;
47413;SDS011;33163;0.000;0.000;2023-05-07T01:23:15;8.02;;;4.78;;
47413;SDS011;33163;0.000;0.000;2023-05-07T01:25:42;7.93;;;4.63;;
47413;SDS011;33163;0.000;0.000;2023-05-07T01:28:08;8.05;;;4.90;;
47413;SDS011;33163;0.000;0.000;2023-05-07T01:30:35;10.13;;;4.88;;
47413;SDS011;33163;0.000;0.000;2023-05-07T01:33:04;9.05;;;4.70;;
47413;SDS011;33163;0.000;0.000;2023-05-07T01:35:36;11.13;;;4.82;;
47413;SDS011;33163;0.000;0.000;2023-05-07T01:38:05;8.38;;;5.07;;
47413;SDS011;33163;0.000;0.000;2023-05-07T01:40:35;7.20;;;4.45;;
47413;SDS011;33163;0.000;0.000;2023-05-07T01:43:01;7.40;;;4.57;;
47413;SDS011;33163;0.000;0.000;2023-05-07T01:45:29;9.02;;;4.45;;
47413;SDS011;33163;0.000;0.000;2023-05-07T01:47:57;5.75;;;4.38;;
47413;SDS011;33163;0.000;0.000;2023-05-07T01:50:24;6.78;;;4.72;;
47413;SDS011;33163;0.000;0.000;2023-05-07T01:52:52;9.07;;;4.28;;
47413;SDS011;33163;0.000;0.000;2023-05-07T01:55:19;8.00;;;4.45;;
47413;SDS011;33163;0.000;0.000;2023-05-07T01:57:47;8.27;;;4.72;;
47413;SDS011;33163;0.000;0.000;2023-05-07T02:00:14;5.45;;;3.92;;
47413;SDS011;33163;0.000;0.000;2023-05-07T02:02:41;6.57;;;4.20;;
47413;SDS011;33163;0.000;0.000;2023-05-07T02:05:08;6.03;;;4.00;;
47413;SDS011;33163;0.000;0.000;2023-05-07T02:07:35;5.65;;;3.67;;
47413;SDS011;33163;0.000;0.000;2023-05-07T02:10:02;7.82;;;4.38;;
47413;SDS011;33163;0.000;0.000;2023-05-07T02:12:29;6.63;;;4.18;;
47413;SDS011;33163;0.000;0.000;2023-05-07T02:14:57;6.63;;;4.00;;
47413;SDS011;33163;0.000;0.000;2023-05-07T02:17:23;7.45;;;4.28;;
47413;SDS011;33163;0.000;0.000;2023-05-07T02:19:50;6.60;;;3.90;;
47413;SDS011;33163;0.000;0.000;2023-05-07T02:22:17;6.93;;;4.10;;
47413;SDS011;33163;0.000;0.000;2023-05-07T02:24:44;5.82;;;3.83;;
47413;SDS011;33163;0.000;0.000;2023-05-07T02:27:10;4.60;;;3.38;;
47413;SDS011;33163;0.000;0.000;2023-05-07T02:29:37;6.40;;;3.97;;
47413;SDS011;33163;0.000;0.000;2023-05-07T02:32:05;7.85;;;4.05;;
47413;SDS011;33163;0.000;0.000;2023-05-07T02:34:32;5.28;;;4.13;;
47413;SDS011;33163;0.000;0.000;2023-05-07T02:36:59;5.40;;;4.03;;
47413;SDS011;33163;0.000;0.000;2023-05-07T02:39:25;4.97;;;3.95;;
47413;SDS011;33163;0.000;0.000;2023-05-07T02:41:52;4.22;;;3.45;;
47413;SDS011;33163;0.000;0.000;2023-05-07T02:44:19;7.20;;;4.03;;
47413;SDS011;33163;0.000;0.000;2023-05-07T02:46:46;5.38;;;4.25;;
47413;SDS011;33163;0.000;0.000;2023-05-07T02:49:14;5.40;;;3.92;;
47413;SDS011;33163;0.000;0.000;2023-05-07T02:51:40;5.55;;;3.97;;
47413;SDS011;33163;0.000;0.000;2023-05-07T02:54:07;4.35;;;3.35;;
47413;SDS011;33163;0.000;0.000;2023-05-07T02:56:34;6.03;;;4.10;;
47413;SDS011;33163;0.000;0.000;2023-05-07T02:59:00;6.10;;;3.60;;
47413;SDS011;33163;0.000;0.000;2023-05-07T03:01:27;6.40;;;4.13;;
47413;SDS011;33163;0.000;0.000;2023-05-07T03:03:54;6.13;;;4.18;;
47413;SDS011;33163;0.000;0.000;2023-05-07T03:06:22;4.63;;;3.30;;
47413;SDS011;33163;0.000;0.000;2023-05-07T03:08:49;4.63;;;3.50;;
47413;SDS011;33163;0.000;0.000;2023-05-07T03:11:16;5.43;;;3.72;;
47413;SDS011;33163;0.000;0.000;2023-05-07T03:13:43;6.15;;;3.63;;
47413;SDS011;33163;0.000;0.000;2023-05-07T03:16:10;4.63;;;3.55;;
47413;SDS011;33163;0.000;0.000;2023-05-07T03:18:36;5.78;;;3.35;;
47413;SDS011;33163;0.000;0.000;2023-05-07T03:21:03;5.25;;;3.63;;
47413;SDS011;33163;0.000;0.000;2023-05-07T03:23:31;4.88;;;3.35;;
47413;SDS011;33163;0.000;0.000;2023-05-07T03:25:58;4.30;;;3.60;;
47413;SDS011;33163;0.000;0.000;2023-05-07T03:28:25;4.20;;;2.80;;
47413;SDS011;33163;0.000;0.000;2023-05-07T03:30:51;5.25;;;3.80;;
47413;SDS011;33163;0.000;0.000;2023-05-07T03:33:18;7.07;;;3.60;;
47413;SDS011;33163;0.000;0.000;2023-05-07T03:35:45;4.70;;;3.00;;
47413;SDS011;33163;0.000;0.000;2023-05-07T03:38:12;5.85;;;3.85;;
47413;SDS011;33163;0.000;0.000;2023-05-07T03:40:40;5.65;;;3.50;;
47413;SDS011;33163;0.000;0.000;2023-05-07T03:43:06;6.82;;;3.40;;
47413;SDS011;33163;0.000;0.000;2023-05-07T03:45:33;4.97;;;3.75;;
47413;SDS011;33163;0.000;0.000;2023-05-07T03:48:00;5.25;;;3.17;;
47413;SDS011;33163;0.000;0.000;2023-05-07T03:50:27;4.18;;;3.22;;
47413;SDS011;33163;0.000;0.000;2023-05-07T03:52:53;4.00;;;2.97;;
47413;SDS011;33163;0.000;0.000;2023-05-07T03:55:20;5.80;;;3.55;;
47413;SDS011;33163;0.000;0.000;2023-05-07T03:57:48;5.68;;;3.70;;
47413;SDS011;33163;0.000;0.000;2023-05-07T04:00:15;3.90;;;2.97;;
47413;SDS011;33163;0.000;0.000;2023-05-07T04:02:42;4.43;;;2.97;;
47413;SDS011;33163;0.000;0.000;2023-05-07T04:05:09;4.00;;;3.20;;
47413;SDS011;33163;0.000;0.000;2023-05-07T04:07:36;4.60;;;3.28;;
47413;SDS011;33163;0.000;0.000;2023-05-07T04:10:02;7.75;;;3.80;;
47413;SDS011;33163;0.000;0.000;2023-05-07T04:12:29;4.57;;;3.45;;
47413;SDS011;33163;0.000;0.000;2023-05-07T04:14:58;4.63;;;2.92;;
47413;SDS011;33163;0.000;0.000;2023-05-07T04:17:24;4.28;;;2.50;;
47413;SDS011;33163;0.000;0.000;2023-05-07T04:19:51;5.22;;;3.35;;
47413;SDS011;33163;0.000;0.000;2023-05-07T04:22:18;4.25;;;3.08;;
47413;SDS011;33163;0.000;0.000;2023-05-07T04:24:44;3.15;;;2.85;;
47413;SDS011;33163;0.000;0.000;2023-05-07T04:27:11;4.78;;;2.90;;
47413;SDS011;33163;0.000;0.000;2023-05-07T04:29:38;4.75;;;3.05;;
47413;SDS011;33163;0.000;0.000;2023-05-07T04:32:08;4.65;;;2.95;;
47413;SDS011;33163;0.000;0.000;2023-05-07T04:34:35;4.78;;;3.38;;
47413;SDS011;33163;0.000;0.000;2023-05-07T04:37:02;4.28;;;2.60;;
47413;SDS011;33163;0.000;0.000;2023-05-07T04:39:28;8.40;;;2.90;;
47413;SDS011;33163;0.000;0.000;2023-05-07T04:41:55;3.55;;;2.50;;
47413;SDS011;33163;0.000;0.000;2023-05-07T04:44:22;4.15;;;2.83;;
47413;SDS011;33163;0.000;0.000;2023-05-07T04:46:49;3.15;;;2.55;;
47413;SDS011;33163;0.000;0.000;2023-05-07T04:49:17;4.13;;;2.63;;
47413;SDS011;33163;0.000;0.000;2023-05-07T04:51:44;4.47;;;2.55;;
47413;SDS011;33163;0.000;0.000;2023-05-07T04:54:11;5.53;;;2.80;;
47413;SDS011;33163;0.000;0.000;2023-05-07T04:56:38;3.60;;;2.78;;
47413;SDS011;33163;0.000;0.000;2023-05-07T04:59:04;4.78;;;2.70;;
47413;SDS011;33163;0.000;0.000;2023-05-07T05:01:31;4.60;;;2.33;;
47413;SDS011;33163;0.000;0.000;2023-05-07T05:03:59;5.78;;;2.40;;
47413;SDS011;33163;0.000;0.000;2023-05-07T05:06:28;3.42;;;2.63;;
47413;SDS011;33163;0.000;0.000;2023-05-07T05:08:55;3.47;;;2.22;;
47413;SDS011;33163;0.000;0.000;2023-05-07T05:11:22;4.07;;;2.75;;
47413;SDS011;33163;0.000;0.000;2023-05-07T05:13:49;3.53;;;2.30;;
47413;SDS011;33163;0.000;0.000;2023-05-07T05:16:15;2.70;;;2.38;;
47413;SDS011;33163;0.000;0.000;2023-05-07T05:18:42;3.40;;;2.30;;
47413;SDS011;33163;0.000;0.000;2023-05-07T05:21:09;5.40;;;2.50;;
47413;SDS011;33163;0.000;0.000;2023-05-07T05:23:37;3.38;;;2.40;;
47413;SDS011;33163;0.000;0.000;2023-05-07T05:26:04;3.50;;;2.60;;
47413;SDS011;33163;0.000;0.000;2023-05-07T05:28:31;3.63;;;2.50;;
47413;SDS011;33163;0.000;0.000;2023-05-07T05:30:57;4.15;;;2.60;;
47413;SDS011;33163;0.000;0.000;2023-05-07T05:33:24;3.22;;;2.47;;
47413;SDS011;33163;0.000;0.000;2023-05-07T05:35:51;3.20;;;2.47;;
47413;SDS011;33163;0.000;0.000;2023-05-07T05:38:19;3.58;;;2.22;;
47413;SDS011;33163;0.000;0.000;2023-05-07T05:40:48;2.75;;;2.53;;
47413;SDS011;33163;0.000;0.000;2023-05-07T05:43:14;2.42;;;2.22;;
47413;SDS011;33163;0.000;0.000;2023-05-07T05:45:41;3.22;;;2.42;;
47413;SDS011;33163;0.000;0.000;2023-05-07T05:48:08;4.13;;;2.58;;
47413;SDS011;33163;0.000;0.000;2023-05-07T05:50:35;6.15;;;2.78;;
47413;SDS011;33163;0.000;0.000;2023-05-07T05:53:01;5.05;;;2.17;;
47413;SDS011;33163;0.000;0.000;2023-05-07T05:55:28;3.45;;;2.10;;
47413;SDS011;33163;0.000;0.000;2023-05-07T05:57:58;4.07;;;2.17;;
47413;SDS011;33163;0.000;0.000;2023-05-07T06:00:25;3.92;;;2.35;;
47413;SDS011;33163;0.000;0.000;2023-05-07T06:02:52;4.63;;;2.67;;
47413;SDS011;33163;0.000;0.000;2023-05-07T06:05:18;4.63;;;3.03;;
47413;SDS011;33163;0.000;0.000;2023-05-07T06:07:45;4.35;;;2.20;;
47413;SDS011;33163;0.000;0.000;2023-05-07T06:10:12;4.22;;;2.78;;
47413;SDS011;33163;0.000;0.000;2023-05-07T06:12:39;5.07;;;2.90;;
47413;SDS011;33163;0.000;0.000;2023-05-07T06:15:10;3.65;;;2.47;;
47413;SDS011;33163;0.000;0.000;2023-05-07T06:17:39;3.95;;;2.80;;
47413;SDS011;33163;0.000;0.000;2023-05-07T06:20:09;4.90;;;3.05;;
47413;SDS011;33163;0.000;0.000;2023-05-07T06:22:36;6.22;;;3.03;;
47413;SDS011;33163;0.000;0.000;2023-05-07T06:25:03;3.22;;;2.13;;
47413;SDS011;33163;0.000;0.000;2023-05-07T06:27:31;5.28;;;2.50;;
47413;SDS011;33163;0.000;0.000;2023-05-07T06:29:58;3.65;;;2.20;;
47413;SDS011;33163;0.000;0.000;2023-05-07T06:32:27;3.05;;;2.00;;
47413;SDS011;33163;0.000;0.000;2023-05-07T06:34:54;2.63;;;2.05;;
47413;SDS011;33163;0.000;0.000;2023-05-07T06:37:20;3.78;;;1.85;;
47413;SDS011;33163;0.000;0.000;2023-05-07T06:39:56;4.10;;;2.40;;
47413;SDS011;33163;0.000;0.000;2023-05-07T06:42:23;3.42;;;2.03;;
47413;SDS011;33163;0.000;0.000;2023-05-07T06:44:50;3.60;;;2.00;;
47413;SDS011;33163;0.000;0.000;2023-05-07T06:47:16;5.25;;;2.33;;
47413;SDS011;33163;0.000;0.000;2023-05-07T06:49:47;3.65;;;2.40;;
47413;SDS011;33163;0.000;0.000;2023-05-07T06:52:13;2.90;;;1.92;;
47413;SDS011;33163;0.000;0.000;2023-05-07T06:54:40;2.55;;;1.80;;
47413;SDS011;33163;0.000;0.000;2023-05-07T06:57:07;2.80;;;2.22;;
47413;SDS011;33163;0.000;0.000;2023-05-07T06:59:34;2.20;;;1.98;;
47413;SDS011;33163;0.000;0.000;2023-05-07T07:02:00;3.00;;;2.15;;
47413;SDS011;33163;0.000;0.000;2023-05-07T07:04:27;1.90;;;1.80;;
47413;SDS011;33163;0.000;0.000;2023-05-07T07:06:55;2.45;;;2.10;;
47413;SDS011;33163;0.000;0.000;2023-05-07T07:09:22;2.88;;;1.80;;
47413;SDS011;33163;0.000;0.000;2023-05-07T07:11:49;4.38;;;1.90;;
47413;SDS011;33163;0.000;0.000;2023-05-07T07:14:16;2.97;;;2.28;;
47413;SDS011;33163;0.000;0.000;2023-05-07T07:16:42;2.47;;;1.75;;
47413;SDS011;33163;0.000;0.000;2023-05-07T07:19:09;4.22;;;1.90;;
47413;SDS011;33163;0.000;0.000;2023-05-07T07:21:36;3.53;;;2.08;;
47413;SDS011;33163;0.000;0.000;2023-05-07T07:24:04;4.07;;;2.20;;
47413;SDS011;33163;0.000;0.000;2023-05-07T07:26:31;4.53;;;2.47;;
47413;SDS011;33163;0.000;0.000;2023-05-07T07:28:58;5.60;;;2.47;;
47413;SDS011;33163;0.000;0.000;2023-05-07T07:31:25;3.42;;;1.95;;
47413;SDS011;33163;0.000;0.000;2023-05-07T07:33:52;4.35;;;2.20;;
47413;SDS011;33163;0.000;0.000;2023-05-07T07:36:19;4.20;;;2.05;;
47413;SDS011;33163;0.000;0.000;2023-05-07T07:38:45;2.70;;;2.03;;
47413;SDS011;33163;0.000;0.000;2023-05-07T07:41:13;5.28;;;2.20;;
47413;SDS011;33163;0.000;0.000;2023-05-07T07:43:40;6.07;;;2.47;;
47413;SDS011;33163;0.000;0.000;2023-05-07T07:46:07;4.07;;;2.65;;
47413;SDS011;33163;0.000;0.000;2023-05-07T07:48:34;9.57;;;5.45;;
47413;SDS011;33163;0.000;0.000;2023-05-07T07:51:00;9.55;;;6.50;;
47413;SDS011;33163;0.000;0.000;2023-05-07T07:53:27;15.35;;;6.18;;
47413;SDS011;33163;0.000;0.000;2023-05-07T07:55:54;6.57;;;4.47;;
47413;SDS011;33163;0.000;0.000;2023-05-07T07:58:22;6.57;;;3.55;;
47413;SDS011;33163;0.000;0.000;2023-05-07T08:00:49;5.20;;;2.45;;
47413;SDS011;33163;0.000;0.000;2023-05-07T08:03:16;6.15;;;3.08;;
47413;SDS011;33163;0.000;0.000;2023-05-07T08:05:44;5.78;;;3.05;;
47413;SDS011;33163;0.000;0.000;2023-05-07T08:08:11;6.13;;;2.88;;
47413;SDS011;33163;0.000;0.000;2023-05-07T08:10:38;6.65;;;3.00;;
47413;SDS011;33163;0.000;0.000;2023-05-07T08:13:04;7.43;;;2.97;;
47413;SDS011;33163;0.000;0.000;2023-05-07T08:15:33;7.57;;;2.40;;
47413;SDS011;33163;0.000;0.000;2023-05-07T08:18:00;4.90;;;2.58;;
47413;SDS011;33163;0.000;0.000;2023-05-07T08:20:27;4.75;;;2.80;;
47413;SDS011;33163;0.000;0.000;2023-05-07T08:22:54;3.75;;;2.50;;
47413;SDS011;33163;0.000;0.000;2023-05-07T08:25:21;4.63;;;2.58;;
47413;SDS011;33163;0.000;0.000;2023-05-07T08:27:48;3.95;;;2.50;;
47413;SDS011;33163;0.000;0.000;2023-05-07T08:30:15;6.50;;;2.67;;
47413;SDS011;33163;0.000;0.000;2023-05-07T08:32:43;5.70;;;2.22;;
47413;SDS011;33163;0.000;0.000;2023-05-07T08:35:10;10.75;;;2.53;;
47413;SDS011;33163;0.000;0.000;2023-05-07T08:37:36;4.50;;;2.08;;
47413;SDS011;33163;0.000;0.000;2023-05-07T08:40:03;6.18;;;2.25;;
47413;SDS011;33163;0.000;0.000;2023-05-07T08:42:33;5.10;;;2.20;;
47413;SDS011;33163;0.000;0.000;2023-05-07T08:45:02;6.70;;;2.10;;
47413;SDS011;33163;0.000;0.000;2023-05-07T08:47:34;5.60;;;2.40;;
47413;SDS011;33163;0.000;0.000;2023-05-07T08:50:11;4.22;;;1.65;;
47413;SDS011;33163;0.000;0.000;2023-05-07T08:52:38;4.60;;;2.35;;
47413;SDS011;33163;0.000;0.000;2023-05-07T08:55:06;3.00;;;1.75;;
47413;SDS011;33163;0.000;0.000;2023-05-07T08:57:34;5.78;;;2.22;;
47413;SDS011;33163;0.000;0.000;2023-05-07T09:00:01;3.90;;;2.17;;
47413;SDS011;33163;0.000;0.000;2023-05-07T09:02:28;2.80;;;1.73;;
47413;SDS011;33163;0.000;0.000;2023-05-07T09:04:55;3.92;;;1.65;;
47413;SDS011;33163;0.000;0.000;2023-05-07T09:07:23;2.55;;;1.75;;
47413;SDS011;33163;0.000;0.000;2023-05-07T09:09:51;2.65;;;1.80;;
47413;SDS011;33163;0.000;0.000;2023-05-07T09:12:18;5.03;;;2.08;;
47413;SDS011;33163;0.000;0.000;2023-05-07T09:14:45;3.47;;;1.50;;
47413;SDS011;33163;0.000;0.000;2023-05-07T09:17:12;5.75;;;2.20;;
47413;SDS011;33163;0.000;0.000;2023-05-07T09:19:38;5.07;;;2.08;;
47413;SDS011;33163;0.000;0.000;2023-05-07T09:22:05;6.20;;;1.95;;
47413;SDS011;33163;0.000;0.000;2023-05-07T09:24:34;4.18;;;1.88;;
47413;SDS011;33163;0.000;0.000;2023-05-07T09:27:02;4.20;;;1.88;;
47413;SDS011;33163;0.000;0.000;2023-05-07T09:29:29;5.80;;;2.10;;
47413;SDS011;33163;0.000;0.000;2023-05-07T09:32:00;3.10;;;1.67;;
47413;SDS011;33163;0.000;0.000;2023-05-07T09:34:28;4.03;;;1.90;;
47413;SDS011;33163;0.000;0.000;2023-05-07T09:36:55;3.67;;;2.00;;
47413;SDS011;33163;0.000;0.000;2023-05-07T09:39:22;2.33;;;1.55;;
47413;SDS011;33163;0.000;0.000;2023-05-07T09:41:51;4.18;;;1.83;;
47413;SDS011;33163;0.000;0.000;2023-05-07T09:44:20;4.10;;;1.77;;
47413;SDS011;33163;0.000;0.000;2023-05-07T09:46:47;3.97;;;1.88;;
47413;SDS011;33163;0.000;0.000;2023-05-07T09:49:20;3.33;;;1.63;;
47413;SDS011;33163;0.000;0.000;2023-05-07T09:51:50;5.22;;;1.70;;
47413;SDS011;33163;0.000;0.000;2023-05-07T09:54:17;3.00;;;1.65;;
47413;SDS011;33163;0.000;0.000;2023-05-07T09:56:45;1.40;;;1.20;;
47413;SDS011;33163;0.000;0.000;2023-05-07T09:59:15;3.40;;;1.58;;
47413;SDS011;33163;0.000;0.000;2023-05-07T10:01:43;1.80;;;1.60;;
47413;SDS011;33163;0.000;0.000;2023-05-07T10:04:10;2.60;;;1.45;;
47413;SDS011;33163;0.000;0.000;2023-05-07T10:06:38;5.75;;;2.58;;
47413;SDS011;33163;0.000;0.000;2023-05-07T10:09:05;6.07;;;2.58;;
47413;SDS011;33163;0.000;0.000;2023-05-07T10:11:33;10.82;;;5.05;;
47413;SDS011;33163;0.000;0.000;2023-05-07T10:14:00;7.88;;;4.10;;
47413;SDS011;33163;0.000;0.000;2023-05-07T10:16:30;7.65;;;3.75;;
47413;SDS011;33163;0.000;0.000;2023-05-07T10:19:01;10.10;;;2.80;;
47413;SDS011;33163;0.000;0.000;2023-05-07T10:21:28;6.75;;;3.00;;
47413;SDS011;33163;0.000;0.000;2023-05-07T10:23:58;8.38;;;3.10;;
47413;SDS011;33163;0.000;0.000;2023-05-07T10:26:25;8.77;;;4.40;;
47413;SDS011;33163;0.000;0.000;2023-05-07T10:28:56;11.43;;;4.15;;
47413;SDS011;33163;0.000;0.000;2023-05-07T10:31:42;8.68;;;4.15;;
47413;SDS011;33163;0.000;0.000;2023-05-07T10:34:18;10.20;;;4.10;;
47413;SDS011;33163;0.000;0.000;2023-05-07T10:36:51;8.40;;;4.38;;
47413;SDS011;33163;0.000;0.000;2023-05-07T10:39:19;8.38;;;4.00;;
47413;SDS011;33163;0.000;0.000;2023-05-07T10:41:46;7.75;;;3.65;;
47413;SDS011;33163;0.000;0.000;2023-05-07T10:44:24;12.15;;;4.95;;
47413;SDS011;33163;0.000;0.000;2023-05-07T10:47:06;12.02;;;4.60;;
47413;SDS011;33163;0.000;0.000;2023-05-07T10:49:34;8.30;;;4.25;;
47413;SDS011;33163;0.000;0.000;2023-05-07T10:52:11;15.50;;;4.65;;
47413;SDS011;33163;0.000;0.000;2023-05-07T10:54:40;8.65;;;3.70;;
47413;SDS011;33163;0.000;0.000;2023-05-07T10:59:59;7.50;;;3.70;;
47413;SDS011;33163;0.000;0.000;2023-05-07T11:05:28;8.38;;;3.85;;
47413;SDS011;33163;0.000;0.000;2023-05-07T11:07:56;10.40;;;3.70;;
47413;SDS011;33163;0.000;0.000;2023-05-07T11:10:23;9.55;;;3.35;;
47413;SDS011;33163;0.000;0.000;2023-05-07T11:13:14;11.18;;;3.38;;
47413;SDS011;33163;0.000;0.000;2023-05-07T11:15:42;11.73;;;3.90;;
47413;SDS011;33163;0.000;0.000;2023-05-07T11:18:10;8.35;;;3.42;;
47413;SDS011;33163;0.000;0.000;2023-05-07T11:20:49;8.65;;;3.30;;
47413;SDS011;33163;0.000;0.000;2023-05-07T11:26:26;11.48;;;3.67;;
47413;SDS011;33163;0.000;0.000;2023-05-07T11:28:54;9.98;;;3.85;;
47413;SDS011;33163;0.000;0.000;2023-05-07T11:31:23;29.13;;;13.73;;
47413;SDS011;33163;0.000;0.000;2023-05-07T11:33:51;82.60;;;35.03;;
47413;SDS011;33163;0.000;0.000;2023-05-07T11:36:20;62.33;;;33.78;;
47413;SDS011;33163;0.000;0.000;2023-05-07T11:38:48;68.28;;;34.53;;
47413;SDS011;33163;0.000;0.000;2023-05-07T11:41:15;54.33;;;26.30;;
47413;SDS011;33163;0.000;0.000;2023-05-07T11:43:56;40.55;;;21.85;;
47413;SDS011;33163;0.000;0.000;2023-05-07T11:46:24;43.30;;;18.40;;
47413;SDS011;33163;0.000;0.000;2023-05-07T11:48:51;37.28;;;17.10;;
47413;SDS011;33163;0.000;0.000;2023-05-07T11:51:22;34.45;;;15.88;;
47413;SDS011;33163;0.000;0.000;2023-05-07T11:53:51;29.50;;;13.70;;
47413;SDS011;33163;0.000;0.000;2023-05-07T11:56:18;23.27;;;10.75;;
47413;SDS011;33163;0.000;0.000;2023-05-07T11:58:45;23.00;;;9.88;;
47413;SDS011;33163;0.000;0.000;2023-05-07T12:01:13;28.05;;;13.40;;
47413;SDS011;33163;0.000;0.000;2023-05-07T12:03:41;29.70;;;10.25;;
47413;SDS011;33163;0.000;0.000;2023-05-07T12:06:09;25.27;;;9.77;;
47413;SDS011;33163;0.000;0.000;2023-05-07T12:08:38;18.55;;;9.82;;
47413;SDS011;33163;0.000;0.000;2023-05-07T12:11:09;21.73;;;11.48;;
47413;SDS011;33163;0.000;0.000;2023-05-07T12:13:41;24.38;;;11.15;;
47413;SDS011;33163;0.000;0.000;2023-05-07T12:16:08;15.75;;;9.77;;
47413;SDS011;33163;0.000;0.000;2023-05-07T12:18:35;22.65;;;11.65;;
47413;SDS011;33163;0.000;0.000;2023-05-07T12:21:04;24.77;;;9.80;;
47413;SDS011;33163;0.000;0.000;2023-05-07T12:23:31;26.60;;;10.98;;
47413;SDS011;33163;0.000;0.000;2023-05-07T12:26:00;24.77;;;10.73;;
47413;SDS011;33163;0.000;0.000;2023-05-07T12:28:27;18.90;;;9.93;;
47413;SDS011;33163;0.000;0.000;2023-05-07T12:30:55;32.05;;;15.02;;
47413;SDS011;33163;0.000;0.000;2023-05-07T12:33:23;32.92;;;13.68;;
47413;SDS011;33163;0.000;0.000;2023-05-07T12:35:53;36.45;;;11.98;;
47413;SDS011;33163;0.000;0.000;2023-05-07T12:38:21;24.73;;;11.63;;
47413;SDS011;33163;0.000;0.000;2023-05-07T12:40:48;26.23;;;11.18;;
47413;SDS011;33163;0.000;0.000;2023-05-07T12:43:18;25.77;;;12.43;;
47413;SDS011;33163;0.000;0.000;2023-05-07T12:45:46;22.48;;;10.90;;
47413;SDS011;33163;0.000;0.000;2023-05-07T12:48:14;27.85;;;11.93;;
47413;SDS011;33163;0.000;0.000;2023-05-07T12:50:41;19.58;;;11.07;;
47413;SDS011;33163;0.000;0.000;2023-05-07T12:53:08;31.25;;;10.68;;
47413;SDS011;33163;0.000;0.000;2023-05-07T12:55:40;29.45;;;12.63;;
47413;SDS011;33163;0.000;0.000;2023-05-07T12:58:08;21.73;;;11.30;;
47413;SDS011;33163;0.000;0.000;2023-05-07T13:00:42;23.75;;;13.15;;
47413;SDS011;33163;0.000;0.000;2023-05-07T13:03:09;26.15;;;13.00;;
47413;SDS011;33163;0.000;0.000;2023-05-07T13:05:36;17.77;;;10.52;;
47413;SDS011;33163;0.000;0.000;2023-05-07T13:08:03;16.98;;;11.77;;
47413;SDS011;33163;0.000;0.000;2023-05-07T13:10:30;24.50;;;13.10;;
47413;SDS011;33163;0.000;0.000;2023-05-07T13:12:59;19.30;;;11.55;;
47413;SDS011;33163;0.000;0.000;2023-05-07T13:15:25;24.95;;;13.27;;
47413;SDS011;33163;0.000;0.000;2023-05-07T13:17:54;23.20;;;13.18;;
47413;SDS011;33163;0.000;0.000;2023-05-07T13:20:21;22.52;;;12.25;;
47413;SDS011;33163;0.000;0.000;2023-05-07T13:22:48;27.73;;;11.52;;
47413;SDS011;33163;0.000;0.000;2023-05-07T13:25:14;25.75;;;10.85;;
47413;SDS011;33163;0.000;0.000;2023-05-07T13:27:41;20.38;;;9.23;;
47413;SDS011;33163;0.000;0.000;2023-05-07T13:30:08;20.08;;;8.95;;
47413;SDS011;33163;0.000;0.000;2023-05-07T13:32:35;24.55;;;11.63;;
47413;SDS011;33163;0.000;0.000;2023-05-07T13:35:03;19.17;;;11.38;;
47413;SDS011;33163;0.000;0.000;2023-05-07T13:37:31;21.63;;;10.52;;
47413;SDS011;33163;0.000;0.000;2023-05-07T13:39:57;24.23;;;12.02;;
47413;SDS011;33163;0.000;0.000;2023-05-07T13:42:24;22.92;;;12.13;;
47413;SDS011;33163;0.000;0.000;2023-05-07T13:44:51;27.77;;;13.35;;
47413;SDS011;33163;0.000;0.000;2023-05-07T13:47:18;27.45;;;12.52;;
47413;SDS011;33163;0.000;0.000;2023-05-07T13:49:44;23.63;;;14.82;;
47413;SDS011;33163;0.000;0.000;2023-05-07T13:52:15;23.52;;;12.32;;
47413;SDS011;33163;0.000;0.000;2023-05-07T13:54:42;24.67;;;11.75;;
47413;SDS011;33163;0.000;0.000;2023-05-07T13:57:09;24.20;;;12.63;;
47413;SDS011;33163;0.000;0.000;2023-05-07T13:59:35;27.92;;;15.23;;
47413;SDS011;33163;0.000;0.000;2023-05-07T14:02:02;26.65;;;13.10;;
47413;SDS011;33163;0.000;0.000;2023-05-07T14:04:30;20.85;;;13.52;;
47413;SDS011;33163;0.000;0.000;2023-05-07T14:06:56;24.45;;;13.68;;
47413;SDS011;33163;0.000;0.000;2023-05-07T14:09:24;21.33;;;13.18;;
47413;SDS011;33163;0.000;0.000;2023-05-07T14:11:51;29.75;;;15.18;;
47413;SDS011;33163;0.000;0.000;2023-05-07T14:14:18;29.23;;;14.43;;
47413;SDS011;33163;0.000;0.000;2023-05-07T14:16:45;22.60;;;11.07;;
47413;SDS011;33163;0.000;0.000;2023-05-07T14:19:11;22.58;;;12.88;;
47413;SDS011;33163;0.000;0.000;2023-05-07T14:21:38;23.90;;;12.70;;
47413;SDS011;33163;0.000;0.000;2023-05-07T14:24:06;21.42;;;12.32;;
47413;SDS011;33163;0.000;0.000;2023-05-07T14:26:34;19.92;;;11.48;;
47413;SDS011;33163;0.000;0.000;2023-05-07T14:29:01;18.85;;;11.00;;
47413;SDS011;33163;0.000;0.000;2023-05-07T14:31:28;22.23;;;10.10;;
47413;SDS011;33163;0.000;0.000;2023-05-07T14:33:55;21.73;;;9.50;;
47413;SDS011;33163;0.000;0.000;2023-05-07T14:36:23;21.85;;;9.07;;
47413;SDS011;33163;0.000;0.000;2023-05-07T14:38:51;16.60;;;8.93;;
47413;SDS011;33163;0.000;0.000;2023-05-07T14:41:18;19.25;;;8.65;;
47413;SDS011;33163;0.000;0.000;2023-05-07T14:43:47;16.95;;;7.40;;
47413;SDS011;33163;0.000;0.000;2023-05-07T14:46:15;12.65;;;7.28;;
47413;SDS011;33163;0.000;0.000;2023-05-07T14:48:43;17.23;;;7.85;;
47413;SDS011;33163;0.000;0.000;2023-05-07T14:51:10;18.25;;;8.13;;
47413;SDS011;33163;0.000;0.000;2023-05-07T14:53:37;16.25;;;7.57;;
47413;SDS011;33163;0.000;0.000;2023-05-07T14:56:04;16.58;;;7.50;;
47413;SDS011;33163;0.000;0.000;2023-05-07T14:58:31;16.42;;;7.07;;
47413;SDS011;33163;0.000;0.000;2023-05-07T15:00:59;12.68;;;5.97;;
47413;SDS011;33163;0.000;0.000;2023-05-07T15:03:27;15.52;;;6.43;;
47413;SDS011;33163;0.000;0.000;2023-05-07T15:05:54;14.73;;;7.47;;
47413;SDS011;33163;0.000;0.000;2023-05-07T15:08:21;14.55;;;6.43;;